Time;durP1;ratioP1;P1;durP2;ratioP2;P2;SDS_P1;SDS_P2;PMS_P1;PMS_P2;Temp;Humidity;BMP_temperature;BMP_pressure;BME280_temperature;BME280_humidity;BME280_pressure;Samples;Min_cycle;Max_cycle;Signal;HPM_P1;HPM_P2
2023/12/22 00:01:45;;;;;;;2.60;2.40;;;5.90;99.90;;;6.31;100.00;96576.78;10455460;28;20226;-68
2023/12/22 00:06:49;;;;;;;2.13;1.93;;;5.90;99.90;;;6.21;100.00;96589.78;10460512;28;20224;-68
2023/12/22 00:11:52;;;;;;;2.40;2.10;;;5.80;99.90;;;6.34;100.00;96549.81;10455412;28;20225;-69
2023/12/22 00:16:56;;;;;;;3.97;2.50;;;5.80;99.90;;;6.26;100.00;96573.13;10459140;28;20217;-69
2023/12/22 00:21:59;;;;;;;2.00;1.90;;;5.80;99.90;;;6.36;100.00;96568.53;10463754;28;20230;-69
2023/12/22 00:27:03;;;;;;;2.73;2.50;;;5.90;99.90;;;6.25;100.00;96580.66;10488342;28;20223;-68
2023/12/22 00:32:09;;;;;;;2.77;2.10;;;5.80;99.90;;;6.36;100.00;96553.31;10471150;28;20319;-70
2023/12/22 00:37:13;;;;;;;2.50;2.30;;;5.80;99.90;;;6.31;100.00;96564.09;10469736;28;20233;-70
2023/12/22 00:42:16;;;;;;;3.27;2.97;;;5.80;99.90;;;6.21;100.00;96604.09;10463142;28;20229;-68
2023/12/22 00:47:20;;;;;;;2.07;1.97;;;5.80;99.90;;;6.19;100.00;96611.66;10442945;28;20238;-69
2023/12/22 00:52:24;;;;;;;2.03;1.90;;;5.70;99.90;;;5.76;100.00;96660.00;10498897;28;20235;-69
2023/12/22 00:57:27;;;;;;;2.00;1.90;;;5.40;99.90;;;5.57;100.00;96685.09;10497729;28;20521;-69
2023/12/22 01:02:31;;;;;;;1.80;1.70;;;5.20;99.90;;;5.36;100.00;96708.41;10493697;28;20612;-69
2023/12/22 01:07:34;;;;;;;1.87;1.77;;;5.00;99.90;;;5.27;100.00;96696.88;10474276;28;20727;-69
2023/12/22 01:12:38;;;;;;;1.97;1.87;;;5.00;99.90;;;5.08;100.00;96670.47;10435287;28;20829;-71
2023/12/22 01:17:42;;;;;;;1.70;1.60;;;4.70;99.90;;;5.06;100.00;96671.16;10426489;28;20245;-69
2023/12/22 01:22:45;;;;;;;1.63;1.53;;;4.70;99.90;;;5.03;100.00;96663.38;10428747;28;20225;-69
2023/12/22 01:27:52;;;;;;;1.90;1.80;;;4.60;99.90;;;5.12;100.00;96651.25;10444013;28;20315;-70
2023/12/22 01:32:56;;;;;;;1.40;1.40;;;4.70;99.90;;;5.33;100.00;96624.63;10491682;28;20228;-69
2023/12/22 01:37:59;;;;;;;1.80;1.73;;;4.70;99.90;;;5.40;100.00;96638.50;10497971;28;20220;-68
2023/12/22 01:43:03;;;;;;;2.50;2.07;;;4.80;99.90;;;5.27;100.00;96641.16;10483106;28;20216;-69
2023/12/22 01:48:08;;;;;;;2.70;2.10;;;4.70;99.90;;;5.09;100.00;96640.94;10456370;28;20233;-68
2023/12/22 01:53:12;;;;;;;2.33;2.13;;;4.70;99.90;;;5.04;100.00;96637.28;10457726;28;20641;-69
2023/12/22 01:58:15;;;;;;;2.23;2.00;;;4.60;99.90;;;5.09;100.00;96646.00;10450078;28;20308;-69
2023/12/22 02:03:20;;;;;;;2.80;2.37;;;4.70;99.90;;;5.13;100.00;96653.00;10489302;28;20303;-68
2023/12/22 02:08:25;;;;;;;2.10;2.00;;;4.70;99.90;;;5.30;100.00;96647.25;10496026;28;20236;-69
2023/12/22 02:13:28;;;;;;;2.73;2.53;;;4.80;99.90;;;5.33;100.00;96651.63;10494593;28;20769;-69
2023/12/22 02:18:36;;;;;;;2.43;2.10;;;4.80;99.90;;;5.23;100.00;96624.00;10495131;28;20231;-69
2023/12/22 02:23:41;;;;;;;2.57;2.37;;;4.80;99.90;;;5.29;100.00;96624.34;10492284;28;20739;-69
2023/12/22 02:28:47;;;;;;;2.50;2.30;;;4.80;99.90;;;5.28;100.00;96620.09;10492863;28;20690;-69
2023/12/22 02:33:55;;;;;;;2.43;2.20;;;4.80;99.90;;;5.33;100.00;96611.97;10492561;28;20652;-69
2023/12/22 02:39:01;;;;;;;3.97;2.70;;;4.80;99.90;;;5.43;100.00;96638.69;10487708;28;20231;-69
2023/12/22 02:44:05;;;;;;;4.07;2.60;;;4.90;99.90;;;5.39;100.00;96627.50;10491668;28;20768;-69
2023/12/22 02:49:08;;;;;;;3.33;2.40;;;4.90;99.90;;;5.51;100.00;96616.31;10493435;28;20346;-69
2023/12/22 02:54:13;;;;;;;6.47;2.23;;;5.00;99.90;;;5.69;100.00;96629.13;10460034;28;20257;-69
2023/12/22 02:59:16;;;;;;;3.17;2.53;;;5.20;99.90;;;5.86;100.00;96615.72;10413176;28;20225;-69
2023/12/22 03:04:19;;;;;;;2.93;2.30;;;5.40;99.90;;;6.03;100.00;96616.69;10410981;28;20225;-68
2023/12/22 03:09:24;;;;;;;3.07;2.37;;;5.60;99.90;;;5.99;100.00;96632.53;10418920;28;20240;-69
2023/12/22 03:14:27;;;;;;;3.33;2.50;;;5.60;99.90;;;6.08;100.00;96625.41;10453513;28;20331;-68
2023/12/22 03:19:31;;;;;;;4.60;2.60;;;5.70;99.90;;;6.20;100.00;96615.91;10468387;28;20739;-69
2023/12/22 03:24:36;;;;;;;3.83;2.13;;;5.90;99.90;;;6.29;100.00;96593.56;10450363;28;20252;-69
2023/12/22 03:29:40;;;;;;;4.27;2.50;;;5.90;99.90;;;6.30;100.00;96577.56;10489531;28;20235;-69
2023/12/22 03:34:43;;;;;;;3.30;2.20;;;6.00;99.90;;;6.35;100.00;96562.56;10488877;28;20266;-69
2023/12/22 03:39:47;;;;;;;5.90;2.70;;;6.00;99.90;;;6.56;100.00;96578.06;10486599;28;20761;-69
2023/12/22 03:44:50;;;;;;;2.97;2.23;;;6.20;99.90;;;6.46;100.00;96603.75;10426157;28;20583;-68
2023/12/22 03:49:54;;;;;;;5.63;2.87;;;6.20;99.90;;;6.51;100.00;96625.16;10490712;28;20270;-69
2023/12/22 03:54:58;;;;;;;5.57;2.50;;;6.20;99.90;;;6.53;100.00;96603.28;10491964;28;20610;-69
2023/12/22 04:00:01;;;;;;;6.53;2.93;;;6.30;99.90;;;6.69;100.00;96620.16;10497979;28;20773;-69
2023/12/22 04:05:05;;;;;;;5.80;2.80;;;6.60;99.90;;;6.75;100.00;96610.31;10464754;28;20220;-68
2023/12/22 04:10:10;;;;;;;6.13;2.67;;;6.60;99.90;;;6.74;100.00;96614.53;10460524;28;20229;-69
2023/12/22 04:15:13;;;;;;;6.43;2.50;;;6.60;99.90;;;6.77;100.00;96622.31;10468818;28;20227;-69
2023/12/22 04:20:17;;;;;;;6.37;2.50;;;6.60;99.90;;;6.79;100.00;96626.59;10469736;28;20313;-69
2023/12/22 04:25:22;;;;;;;6.07;2.37;;;6.60;99.90;;;6.81;100.00;96630.97;10466294;28;20302;-68
2023/12/22 04:30:27;;;;;;;4.03;2.80;;;6.60;99.90;;;6.74;100.00;96667.84;10462763;28;20236;-69
2023/12/22 04:35:34;;;;;;;3.90;2.37;;;6.50;99.90;;;6.66;100.00;96660.63;10464781;28;20228;-69
2023/12/22 04:40:39;;;;;;;3.20;2.17;;;6.40;99.90;;;6.51;100.00;96665.78;10465049;28;20317;-69
2023/12/22 04:45:42;;;;;;;4.27;2.27;;;6.30;99.90;;;5.91;100.00;96669.25;10459002;28;20232;-70
2023/12/22 04:50:45;;;;;;;2.60;2.20;;;5.80;99.90;;;5.76;100.00;96687.88;10468908;28;20233;-69
2023/12/22 04:55:49;;;;;;;2.10;1.90;;;5.60;99.90;;;5.62;100.00;96691.28;10472909;28;20246;-69
2023/12/22 05:00:52;;;;;;;4.63;2.27;;;5.40;99.90;;;5.60;100.00;96687.78;10461978;28;20236;-69
2023/12/22 05:05:56;;;;;;;4.67;2.13;;;5.40;99.90;;;5.75;100.00;96693.75;10500781;28;20717;-69
2023/12/22 05:11:00;;;;;;;4.03;2.40;;;5.50;99.90;;;5.87;100.00;96685.94;10484720;28;20356;-68
2023/12/22 05:16:05;;;;;;;9.63;2.93;;;5.60;99.90;;;5.93;100.00;96676.19;10485522;28;20586;-70
2023/12/22 05:21:08;;;;;;;7.80;3.13;;;5.70;99.90;;;6.09;100.00;96682.97;10497812;28;20224;-68
2023/12/22 05:26:18;;;;;;;6.53;2.90;;;5.80;99.90;;;6.05;100.00;96687.00;10495330;28;20219;-68
2023/12/22 05:31:21;;;;;;;6.87;2.77;;;5.90;99.90;;;6.11;100.00;96708.41;10422058;28;20233;-68
2023/12/22 05:36:25;;;;;;;7.53;3.20;;;5.80;99.90;;;6.16;100.00;96710.41;10426490;28;20235;-68
2023/12/22 05:41:30;;;;;;;7.63;2.80;;;5.90;99.90;;;6.31;100.00;96703.63;10475194;28;20228;-69
2023/12/22 05:46:38;;;;;;;6.50;2.80;;;6.00;99.90;;;6.29;100.00;96725.50;10459354;28;20235;-68
2023/12/22 05:51:41;;;;;;;7.90;3.03;;;6.00;99.90;;;6.40;100.00;96695.66;10489169;28;20228;-67
2023/12/22 05:56:46;;;;;;;5.67;3.27;;;6.10;99.90;;;6.46;100.00;96743.31;10486178;28;20225;-67
2023/12/22 06:01:54;;;;;;;6.53;2.70;;;6.30;99.90;;;6.20;100.00;96727.53;10455297;28;20263;-68
2023/12/22 06:06:57;;;;;;;4.13;2.93;;;6.10;99.90;;;5.94;100.00;96707.47;10464772;28;20221;-68
2023/12/22 06:12:02;;;;;;;12.03;3.70;;;5.90;99.90;;;6.20;100.00;96688.63;10456831;28;20722;-67
2023/12/22 06:17:05;;;;;;;6.67;3.23;;;5.90;99.90;;;6.22;100.00;96710.75;10491930;28;20234;-67
2023/12/22 06:22:08;;;;;;;7.97;3.47;;;6.00;99.90;;;6.27;100.00;96714.44;10466957;28;20227;-69
2023/12/22 06:27:12;;;;;;;11.27;3.57;;;6.00;99.90;;;6.35;100.00;96734.25;10471518;28;20599;-69
2023/12/22 06:32:17;;;;;;;8.30;3.20;;;6.10;99.90;;;6.43;100.00;96746.56;10482295;28;20252;-69
2023/12/22 06:37:20;;;;;;;11.87;3.40;;;6.20;99.90;;;6.50;100.00;96756.28;10451514;28;20301;-69
2023/12/22 06:42:24;;;;;;;12.17;3.60;;;6.30;99.90;;;6.51;100.00;96773.25;10492925;28;20304;-69
2023/12/22 06:47:28;;;;;;;9.30;2.97;;;6.30;99.90;;;6.58;100.00;96801.50;10429838;28;20229;-68
2023/12/22 06:52:31;;;;;;;7.73;3.00;;;6.40;99.90;;;6.66;100.00;96798.59;10424022;28;20237;-69
2023/12/22 06:57:35;;;;;;;8.17;3.50;;;6.50;99.90;;;6.54;100.00;96803.00;10482454;28;20232;-69
2023/12/22 07:02:39;;;;;;;7.20;3.47;;;6.40;99.90;;;6.49;100.00;96815.44;10490474;28;20504;-68
2023/12/22 07:07:43;;;;;;;9.20;3.80;;;6.30;99.90;;;6.57;100.00;96803.19;10492084;28;20460;-68
2023/12/22 07:12:47;;;;;;;8.90;3.60;;;6.20;99.90;;;6.61;100.00;96812.72;10490432;28;20216;-67
2023/12/22 07:17:51;;;;;;;8.50;3.33;;;6.30;99.90;;;6.74;100.00;96822.75;10488904;28;20311;-67
2023/12/22 07:22:56;;;;;;;7.73;3.57;;;6.40;99.90;;;6.72;100.00;96829.44;10487261;28;20250;-68
2023/12/22 07:28:01;;;;;;;9.03;3.40;;;6.40;99.90;;;6.71;100.00;96847.97;10492692;28;20220;-69
2023/12/22 07:33:05;;;;;;;11.63;3.70;;;6.50;99.90;;;6.66;100.00;96862.06;10458555;28;20232;-68
2023/12/22 07:38:09;;;;;;;7.30;3.00;;;6.50;99.90;;;6.77;100.00;96868.63;10496208;28;20691;-67
2023/12/22 07:43:14;;;;;;;10.83;3.47;;;6.60;99.90;;;6.87;100.00;96869.16;10438957;28;20252;-69
2023/12/22 07:48:17;;;;;;;9.23;3.57;;;6.60;99.90;;;6.93;100.00;96879.66;10453592;28;20232;-69
2023/12/22 07:53:21;;;;;;;6.00;3.33;;;6.70;99.90;;;6.95;100.00;96878.03;10454410;28;20805;-69
2023/12/22 07:58:25;;;;;;;9.33;3.20;;;6.70;99.90;;;6.96;100.00;96872.19;10492008;28;20224;-67
2023/12/22 08:03:28;;;;;;;6.93;3.37;;;6.80;99.90;;;6.97;100.00;96881.53;10499845;28;20639;-67
2023/12/22 08:08:33;;;;;;;7.03;2.93;;;6.80;99.90;;;7.02;100.00;96897.06;10501439;28;20232;-67
2023/12/22 08:13:37;;;;;;;6.70;3.10;;;6.80;99.90;;;7.20;100.00;96905.66;10487197;28;20228;-66
2023/12/22 08:18:40;;;;;;;7.77;2.90;;;7.00;99.90;;;7.15;100.00;96897.81;10490659;28;20289;-66
2023/12/22 08:23:44;;;;;;;4.50;3.20;;;6.90;99.90;;;6.95;100.00;96911.06;10493756;28;20219;-68
2023/12/22 08:28:57;;;;;;;4.93;2.53;;;6.70;99.90;;;7.15;100.00;96920.69;10493719;28;20228;-67
2023/12/22 08:34:01;;;;;;;5.33;3.17;;;6.90;99.90;;;7.09;100.00;96930.47;10492593;28;20240;-68
2023/12/22 08:39:04;;;;;;;5.40;2.67;;;6.80;99.90;;;6.94;100.00;96939.81;10488628;28;20231;-68
2023/12/22 08:44:09;;;;;;;4.93;2.40;;;6.60;99.90;;;6.77;100.00;96929.56;10497871;28;20226;-69
2023/12/22 08:49:13;;;;;;;5.07;2.37;;;6.50;99.90;;;6.75;100.00;96918.47;10489125;28;20393;-67
2023/12/22 08:54:16;;;;;;;5.73;2.40;;;6.40;99.90;;;6.65;100.00;96931.41;10486780;28;20239;-68
2023/12/22 08:59:21;;;;;;;4.23;2.50;;;6.30;99.90;;;6.67;100.00;96942.56;10451122;28;20372;-68
2023/12/22 09:04:24;;;;;;;6.47;3.17;;;6.30;99.90;;;6.84;100.00;96945.16;10451272;28;20228;-69
2023/12/22 09:09:27;;;;;;;5.93;2.73;;;6.40;99.90;;;6.71;100.00;96933.44;10446936;28;20611;-68
2023/12/22 09:14:32;;;;;;;5.10;2.97;;;6.30;99.90;;;6.71;100.00;96920.75;10452300;28;20383;-68
2023/12/22 09:19:38;;;;;;;6.70;3.50;;;6.30;99.90;;;6.70;100.00;96909.72;10444069;28;20253;-68
2023/12/22 09:24:42;;;;;;;6.03;3.27;;;6.30;99.90;;;6.57;100.00;96919.09;10477526;28;20226;-69
2023/12/22 09:29:46;;;;;;;9.87;3.87;;;6.20;99.90;;;6.71;100.00;96928.34;10449580;28;20233;-69
2023/12/22 09:34:50;;;;;;;8.50;3.70;;;6.30;99.90;;;6.70;100.00;96947.78;10414267;28;20248;-72
2023/12/22 09:39:53;;;;;;;11.73;4.13;;;6.30;99.90;;;6.86;100.00;96943.56;10415845;28;20323;-68
2023/12/22 09:45:01;;;;;;;9.47;3.73;;;6.40;99.90;;;6.85;100.00;96947.78;10462614;28;20220;-69
2023/12/22 09:50:06;;;;;;;14.43;4.53;;;6.40;99.90;;;6.82;100.00;96967.06;10492478;28;20737;-67
2023/12/22 09:55:10;;;;;;;12.67;4.33;;;6.40;99.90;;;6.75;100.00;96937.88;10493816;28;20235;-69
2023/12/22 10:00:16;;;;;;;14.60;4.37;;;6.30;99.90;;;6.79;100.00;96959.28;10488113;28;20231;-69
2023/12/22 10:05:19;;;;;;;15.63;5.93;;;6.40;99.90;;;6.76;100.00;96950.69;10468390;28;20319;-68
2023/12/22 10:10:24;;;;;;;16.83;4.67;;;6.30;99.90;;;6.70;100.00;96947.78;10484991;28;20743;-71
2023/12/22 10:15:29;;;;;;;15.13;4.53;;;6.40;99.90;;;6.80;100.00;96935.63;10413321;28;20320;-67
2023/12/22 10:20:32;;;;;;;14.87;4.40;;;6.40;99.90;;;6.87;100.00;96925.03;10421419;28;21607;-68
2023/12/22 10:25:36;;;;;;;16.03;4.50;;;6.50;99.90;;;6.92;100.00;96913.44;10492511;28;20263;-68
2023/12/22 10:30:41;;;;;;;15.37;5.57;;;6.50;99.90;;;7.05;100.00;96905.72;10462832;28;20235;-67
2023/12/22 10:35:45;;;;;;;15.87;5.13;;;6.60;99.90;;;7.14;100.00;96906.22;10430320;28;21011;-72
2023/12/22 10:40:48;;;;;;;14.97;5.67;;;6.70;99.90;;;6.98;100.00;96903.59;10418614;28;20229;-70
2023/12/22 10:45:54;;;;;;;15.30;5.00;;;6.70;99.90;;;7.12;100.00;96896.75;10431605;28;20237;-69
2023/12/22 10:50:58;;;;;;;15.93;4.67;;;6.70;99.90;;;7.08;100.00;96895.72;10414488;28;20233;-70
2023/12/22 10:56:01;;;;;;;16.73;5.17;;;6.70;99.90;;;7.04;100.00;96873.50;10442598;28;20232;-69
2023/12/22 11:01:07;;;;;;;15.43;5.07;;;6.70;99.90;;;7.05;100.00;96865.06;10488671;28;20498;-72
2023/12/22 11:06:13;;;;;;;17.63;6.10;;;6.70;99.90;;;7.17;100.00;96855.56;10457579;28;20226;-68
2023/12/22 11:11:24;;;;;;;14.97;5.00;;;6.80;99.90;;;7.09;100.00;96841.56;10489064;28;20587;-69
2023/12/22 11:16:30;;;;;;;13.13;5.10;;;6.70;99.90;;;7.05;100.00;96839.66;10437661;28;20428;-67
2023/12/22 11:21:33;;;;;;;14.07;5.87;;;6.70;99.90;;;7.22;100.00;96822.78;10447668;28;20261;-71
2023/12/22 11:26:39;;;;;;;17.43;6.20;;;6.80;99.90;;;7.24;100.00;96826.28;10479435;28;20221;-69
2023/12/22 11:31:48;;;;;;;15.47;5.80;;;6.90;99.90;;;7.38;100.00;96816.81;10432737;28;20328;-68
2023/12/22 11:36:53;;;;;;;18.17;6.30;;;7.00;99.90;;;7.43;100.00;96797.59;10472985;28;20319;-69
2023/12/22 11:41:57;;;;;;;19.17;7.00;;;7.10;99.90;;;7.45;100.00;96796.00;10475268;28;20247;-69
2023/12/22 11:47:13;;;;;;;16.73;6.50;;;7.10;99.90;;;7.46;100.00;96782.50;10412010;28;20718;-69
2023/12/22 11:52:18;;;;;;;11.80;5.33;;;7.20;99.90;;;7.60;100.00;96763.72;10412670;28;20588;-69
2023/12/22 11:57:34;;;;;;;9.03;4.10;;;7.30;99.90;;;7.57;100.00;96776.28;10417488;28;20256;-69
2023/12/22 12:02:41;;;;;;;8.73;3.90;;;7.20;99.90;;;7.53;100.00;96753.19;10409296;28;20767;-68
2023/12/22 12:07:47;;;;;;;6.63;3.50;;;7.20;99.90;;;7.55;100.00;96742.28;10410446;28;20628;-68
2023/12/22 12:13:05;;;;;;;7.30;4.43;;;7.30;99.90;;;7.64;100.00;96724.97;10422757;28;20225;-69
2023/12/22 12:18:12;;;;;;;3.90;2.57;;;7.30;99.90;;;7.66;100.00;96709.75;10492077;28;20273;-68
2023/12/22 12:23:17;;;;;;;6.43;2.97;;;7.30;99.90;;;7.61;100.00;96722.28;10421488;28;20222;-69
2023/12/22 12:28:27;;;;;;;4.67;2.53;;;7.20;99.90;;;7.55;100.00;96729.56;10416697;28;20249;-69
2023/12/22 12:33:32;;;;;;;3.70;2.53;;;7.20;99.90;;;7.55;100.00;96721.94;10443641;28;20220;-68
2023/12/22 12:38:50;;;;;;;5.83;3.53;;;7.20;99.90;;;7.49;100.00;96716.56;10426420;28;20232;-69
2023/12/22 12:43:55;;;;;;;4.43;2.20;;;7.10;99.90;;;7.57;100.00;96683.88;10444990;28;20266;-69
2023/12/22 12:49:06;;;;;;;5.80;2.63;;;7.10;99.90;;;7.52;100.00;96676.03;10497079;28;20816;-69
2023/12/22 12:54:10;;;;;;;6.17;3.07;;;7.10;99.90;;;7.43;100.00;96683.19;10455021;28;20229;-67
2023/12/22 12:59:14;;;;;;;4.77;2.77;;;7.00;99.90;;;7.46;100.00;96680.81;10488938;28;20239;-69
2023/12/22 13:04:18;;;;;;;6.40;2.87;;;7.10;99.90;;;7.38;100.00;96692.25;10476095;28;20212;-68
2023/12/22 13:09:33;;;;;;;5.10;2.50;;;7.10;99.90;;;7.42;100.00;96694.19;10477802;28;20808;-71
2023/12/22 13:14:37;;;;;;;5.33;2.80;;;7.10;99.90;;;7.39;100.00;96688.94;10427370;28;20806;-69
2023/12/22 13:19:41;;;;;;;4.30;2.43;;;7.00;99.90;;;7.37;100.00;96686.31;10438905;28;20242;-69
2023/12/22 13:24:56;;;;;;;4.00;2.60;;;7.00;99.90;;;7.53;100.00;96682.88;10485181;28;20586;-70
2023/12/22 13:30:00;;;;;;;3.37;2.87;;;7.10;99.90;;;7.51;100.00;96684.47;10492883;28;20230;-69
2023/12/22 13:35:05;;;;;;;5.37;2.37;;;7.10;99.90;;;7.48;100.00;96684.31;10474236;28;20355;-69
2023/12/22 13:40:10;;;;;;;4.17;3.07;;;7.00;99.90;;;7.50;100.00;96674.19;10482408;28;20849;-69
2023/12/22 13:45:13;;;;;;;3.50;2.90;;;7.10;99.90;;;7.34;100.00;96680.22;10487903;28;20256;-69
2023/12/22 13:50:18;;;;;;;3.60;3.17;;;7.00;99.90;;;7.55;100.00;96668.53;10482381;28;20315;-69
2023/12/22 13:55:23;;;;;;;2.80;2.30;;;7.10;99.90;;;7.60;100.00;96669.66;10486855;28;20228;-69
2023/12/22 14:00:29;;;;;;;4.73;2.93;;;7.10;99.90;;;7.46;100.00;96688.44;10492615;28;20278;-70
2023/12/22 14:05:34;;;;;;;31.03;16.83;;;7.10;99.90;;;7.57;100.00;96668.63;10486151;28;20243;-71
2023/12/22 14:10:38;;;;;;;3.13;2.80;;;7.20;99.90;;;7.63;100.00;96674.88;10482165;28;20229;-69
2023/12/22 14:15:43;;;;;;;5.73;4.80;;;7.30;99.90;;;7.86;100.00;96682.75;10455234;28;20224;-69
2023/12/22 14:20:49;;;;;;;3.90;3.50;;;7.40;99.90;;;7.91;100.00;96681.31;10483468;28;20308;-69
2023/12/22 14:25:52;;;;;;;3.40;3.20;;;7.50;99.90;;;8.21;100.00;96688.66;10486624;28;20852;-69
2023/12/22 14:30:55;;;;;;;3.37;3.10;;;7.90;99.90;;;8.17;100.00;96689.31;10483456;28;20225;-68
2023/12/22 14:36:00;;;;;;;3.67;3.37;;;7.90;99.90;;;8.40;100.00;96691.28;10483256;28;20311;-69
2023/12/22 14:41:03;;;;;;;2.50;2.33;;;8.10;99.90;;;8.40;100.00;96691.28;10483962;28;20239;-68
2023/12/22 14:46:07;;;;;;;2.30;1.77;;;8.20;99.90;;;8.39;100.00;96712.47;10483109;28;20225;-68
2023/12/22 14:51:11;;;;;;;2.00;1.90;;;8.20;99.90;;;8.46;100.00;96718.72;10481906;28;20229;-68
2023/12/22 14:56:14;;;;;;;1.60;1.50;;;8.10;99.90;;;8.56;100.00;96724.31;10487158;28;20231;-68
2023/12/22 15:01:18;;;;;;;2.30;1.73;;;8.20;99.90;;;8.63;100.00;96722.03;10479586;28;20228;-69
2023/12/22 15:06:22;;;;;;;2.85;2.35;;;8.40;99.90;;;8.67;100.00;96736.66;10484030;28;20667;-68
2023/12/22 15:11:26;;;;;;;2.95;2.60;;;8.30;99.90;;;8.70;100.00;96752.06;10482693;28;20227;-69
2023/12/22 15:16:29;;;;;;;2.20;2.10;;;8.40;99.90;;;8.66;100.00;96734.91;10483006;28;20246;-68
2023/12/22 15:21:34;;;;;;;2.30;2.10;;;8.40;99.90;;;8.66;100.00;96748.53;10435741;28;20718;-69
2023/12/22 15:26:37;;;;;;;9.17;6.63;;;8.40;99.90;;;8.81;100.00;96748.34;10406334;28;20609;-69
2023/12/22 15:31:40;;;;;;;2.30;2.20;;;8.50;99.90;;;8.71;100.00;96736.00;10412114;28;20234;-68
2023/12/22 15:36:46;;;;;;;3.33;2.70;;;8.40;99.90;;;8.78;100.00;96743.13;10414797;28;20238;-70
2023/12/22 15:41:49;;;;;;;2.17;1.97;;;8.50;99.90;;;8.74;100.00;96764.16;10437484;28;20722;-70
2023/12/22 15:46:52;;;;;;;1.90;1.80;;;8.50;99.90;;;8.75;100.00;96771.00;10484283;28;20225;-68
2023/12/22 15:51:57;;;;;;;2.40;2.30;;;8.50;99.90;;;8.84;100.00;96752.72;10464081;28;20240;-68
2023/12/22 15:57:02;;;;;;;2.65;2.45;;;8.50;99.90;;;8.66;100.00;96758.72;10473163;28;20232;-69
2023/12/22 16:02:06;;;;;;;3.20;3.00;;;8.40;99.90;;;8.73;100.00;96744.59;10431321;28;20217;-69
2023/12/22 16:07:11;;;;;;;3.43;2.93;;;8.40;99.90;;;8.66;100.00;96771.44;10501396;28;20224;-70
2023/12/22 16:12:14;;;;;;;2.20;1.80;;;8.40;99.90;;;8.79;100.00;96772.91;10460408;28;20316;-68
2023/12/22 16:17:17;;;;;;;1.90;1.80;;;8.50;99.90;;;8.84;100.00;96773.97;10413573;28;20234;-69
2023/12/22 16:22:21;;;;;;;1.60;1.50;;;8.60;99.90;;;8.80;100.00;96793.34;10452181;28;20230;-69
2023/12/22 16:27:24;;;;;;;1.77;1.67;;;8.60;99.90;;;8.82;100.00;96785.78;10499220;28;20228;-69
2023/12/22 16:32:28;;;;;;;1.75;1.65;;;8.70;99.90;;;8.88;100.00;96785.19;10499398;28;20685;-68
2023/12/22 16:37:32;;;;;;;2.53;2.33;;;8.70;99.90;;;8.94;100.00;96795.66;10459961;28;20236;-68
2023/12/22 16:42:35;;;;;;;2.10;2.00;;;8.70;99.90;;;8.86;100.00;96804.63;10479489;28;20226;-69
2023/12/22 16:47:38;;;;;;;1.80;1.70;;;8.70;99.90;;;8.98;100.00;96803.50;10455781;28;20391;-70
2023/12/22 16:52:44;;;;;;;2.25;2.08;;;8.80;99.90;;;8.91;100.00;96806.59;10488030;28;20212;-68
2023/12/22 16:57:47;;;;;;;1.88;1.77;;;8.70;99.90;;;8.95;100.00;96782.97;10472855;28;20229;-68
2023/12/22 17:02:50;;;;;;;3.30;3.00;;;8.70;99.90;;;8.98;100.00;96816.25;10470996;28;20216;-68
2023/12/22 17:07:56;;;;;;;3.63;3.33;;;8.70;99.90;;;9.04;100.00;96823.28;10458827;28;20325;-69
2023/12/22 17:12:59;;;;;;;2.72;2.22;;;8.80;99.90;;;8.96;100.00;96833.16;10418074;28;20225;-70
2023/12/22 17:18:04;;;;;;;2.38;2.17;;;8.80;99.90;;;8.97;100.00;96847.63;10417233;28;20664;-73
2023/12/22 17:23:09;;;;;;;1.90;1.80;;;8.70;99.90;;;9.06;100.00;96847.19;10458653;28;20321;-70
2023/12/22 17:28:12;;;;;;;2.10;2.00;;;8.80;99.90;;;9.03;100.00;96847.91;10487869;28;20842;-69
2023/12/22 17:33:15;;;;;;;3.40;3.10;;;8.80;99.90;;;9.05;100.00;96849.69;10489221;28;20228;-69
2023/12/22 17:38:20;;;;;;;3.03;2.83;;;8.90;99.90;;;9.11;100.00;96839.75;10482659;28;20707;-69
2023/12/22 17:43:23;;;;;;;2.45;2.25;;;9.00;99.90;;;9.09;100.00;96841.34;10496397;28;20786;-69
2023/12/22 17:48:26;;;;;;;2.28;2.08;;;8.90;99.90;;;9.14;100.00;96856.06;10482942;28;20236;-69
2023/12/22 17:53:31;;;;;;;2.75;2.38;;;8.90;99.90;;;9.03;100.00;96875.09;10484699;28;20223;-69
2023/12/22 17:58:34;;;;;;;2.25;2.05;;;8.80;99.90;;;9.07;100.00;96863.34;10482924;28;20228;-69
2023/12/22 18:03:37;;;;;;;4.50;4.10;;;8.90;99.90;;;9.17;100.00;96870.63;10487287;28;20266;-69
2023/12/22 18:08:41;;;;;;;2.85;2.42;;;8.80;99.90;;;9.24;100.00;96868.44;10480555;28;20289;-69
2023/12/22 18:13:44;;;;;;;5.38;4.97;;;8.90;99.90;;;9.13;100.00;96873.81;10488013;28;20248;-68
2023/12/22 18:18:48;;;;;;;3.50;3.20;;;8.80;99.90;;;9.26;100.00;96896.53;10461343;28;20618;-68
2023/12/22 18:23:53;;;;;;;1.98;1.88;;;8.90;99.90;;;9.19;100.00;96890.31;10441207;28;20248;-69
2023/12/22 18:28:56;;;;;;;1.90;1.80;;;8.90;99.90;;;9.23;100.00;96901.50;10444137;28;20224;-68
2023/12/22 18:33:59;;;;;;;2.30;1.88;;;8.90;99.90;;;9.22;100.00;96909.97;10469774;28;20228;-68
2023/12/22 18:39:04;;;;;;;1.40;1.30;;;8.80;99.90;;;9.20;100.00;96914.97;10447955;28;20875;-68
2023/12/22 18:44:07;;;;;;;1.70;1.60;;;8.90;99.90;;;9.18;100.00;96892.75;10441646;28;20280;-68
2023/12/22 18:49:13;;;;;;;1.50;1.40;;;8.90;99.90;;;9.36;100.00;96901.28;10479789;28;20619;-69
2023/12/22 18:54:18;;;;;;;1.98;1.88;;;9.00;99.90;;;9.24;100.00;96904.16;10435217;28;20368;-68
2023/12/22 18:59:21;;;;;;;2.03;1.83;;;8.90;99.90;;;9.27;100.00;96918.72;10461905;28;20259;-69
2023/12/22 19:04:24;;;;;;;1.67;1.58;;;8.90;99.90;;;9.29;100.00;96936.63;10482456;28;20234;-68
2023/12/22 19:09:32;;;;;;;2.17;2.08;;;8.90;99.90;;;9.24;100.00;96952.59;10452557;28;20731;-69
2023/12/22 19:14:35;;;;;;;2.30;1.98;;;8.90;99.90;;;9.41;100.00;96971.22;10476919;28;20529;-68
2023/12/22 19:19:38;;;;;;;1.95;1.85;;;9.00;99.90;;;9.41;100.00;96960.13;10471558;28;20339;-69
2023/12/22 19:24:42;;;;;;;1.90;1.75;;;9.00;99.90;;;9.31;100.00;96968.16;10436981;28;20634;-68
2023/12/22 19:29:45;;;;;;;1.75;1.65;;;8.90;99.90;;;9.41;100.00;96962.69;10455232;28;20228;-69
2023/12/22 19:34:49;;;;;;;2.25;2.05;;;9.00;99.90;;;9.28;100.00;96961.25;10460330;28;20225;-71
2023/12/22 19:39:54;;;;;;;2.00;1.90;;;8.90;99.90;;;9.33;99.72;96964.00;10436665;28;20235;-69
2023/12/22 19:44:57;;;;;;;2.10;1.90;;;9.00;99.90;;;9.35;99.86;96978.56;10479509;28;20239;-69
2023/12/22 19:50:00;;;;;;;2.03;1.63;;;9.10;99.90;;;9.42;100.00;96975.53;10444629;28;20228;-69
2023/12/22 19:55:06;;;;;;;1.67;1.60;;;9.10;99.90;;;9.48;99.75;96972.38;10466276;28;20684;-69
2023/12/22 20:00:11;;;;;;;1.60;1.50;;;9.10;99.90;;;9.34;100.00;96979.38;10443406;28;20221;-68
2023/12/22 20:05:15;;;;;;;1.88;1.70;;;9.00;99.90;;;9.43;100.00;96982.34;10439921;28;20304;-70
2023/12/22 20:10:19;;;;;;;1.80;1.70;;;9.00;99.90;;;9.41;98.71;96994.19;10438834;28;20225;-69
2023/12/22 20:15:22;;;;;;;2.00;1.90;;;9.00;99.90;;;9.35;98.83;96988.78;10438111;28;20225;-71
2023/12/22 20:20:26;;;;;;;1.88;1.63;;;9.00;99.90;;;9.39;98.77;96993.22;10440699;28;20307;-67
2023/12/22 20:25:31;;;;;;;2.03;1.83;;;9.00;99.90;;;9.45;98.71;97001.16;10450679;28;20643;-71
2023/12/22 20:30:34;;;;;;;2.15;1.95;;;8.90;99.90;;;9.41;98.44;97001.84;10472712;28;20233;-68
2023/12/22 20:35:37;;;;;;;2.08;1.83;;;8.90;99.90;;;9.43;98.40;97012.97;10467502;28;20239;-68
2023/12/22 20:40:42;;;;;;;1.80;1.70;;;8.90;99.90;;;9.54;96.35;97026.22;10481712;28;20285;-68
2023/12/22 20:45:47;;;;;;;4.03;2.40;;;9.10;99.90;;;9.45;97.24;97031.78;10442743;28;20638;-68
2023/12/22 20:50:51;;;;;;;2.30;2.17;;;9.00;99.90;;;9.53;96.75;97039.81;10447813;28;20224;-68
2023/12/22 20:55:55;;;;;;;3.28;2.35;;;9.00;99.90;;;9.42;97.42;97044.38;10469257;28;20250;-68
2023/12/22 21:00:58;;;;;;;3.00;2.00;;;9.10;99.90;;;9.38;98.86;97042.47;10449900;28;20246;-68
2023/12/22 21:06:05;;;;;;;2.00;1.80;;;9.00;99.90;;;9.37;98.42;97043.28;10451934;28;20221;-69
2023/12/22 21:11:10;;;;;;;2.13;2.00;;;8.90;99.90;;;9.40;97.67;97033.22;10461733;28;20303;-68
2023/12/22 21:16:13;;;;;;;2.50;1.70;;;8.90;99.90;;;9.40;98.40;97065.50;10478665;28;20259;-68